Дата Пункты Температура Давл., мм. Влажн., % Ветер Погодные явления
Воздуха Воды Направл. Скорость
04.09.15 05:00 Одесса 20.0 22.0 756 83 З 2 06 часов
04.09.15 02:00 Одесса 21.0 22.0 755 82 З 1 03 часа
03.09.15 08:00 Одесса 25.0 23.0 755 67 Пд-З 2 21 час
03.09.15 05:00 Одесса 27.0 23.0 755 63 Пд-З 2 18 часов
03.09.15 02:00 Одесса 28.0 23.0 755 75 Пд 4 15 часов
03.09.15 11:00 Одесса 25.0 23.0 756 84 Пд 5 12 часов
03.09.15 08:00 Одесса 24.0 23.0 755 89 Пд 2 09 часов
03.09.15 05:00 Одесса 23.0 21.0 755 85 Пд-З 2 06 часов
03.09.15 02:00 Одесса 24.0 21.0 755 77 Пд-З 3 03 часа
02.09.15 08:00 Одесса 24.0 22.0 755 87 Пд-З 2 21 час
02.09.15 05:00 Одесса 27.0 22.0 755 69 Пд-З 3 18 часов
02.09.15 02:00 Одесса 26.0 22.0 756 76 Пд 5 15 часов
02.09.15 11:00 Одесса 26.0 22.0 756 81 Пд 4 12 часов
02.09.15 08:00 Одесса 25.0 22.0 756 65 Пд-З 2 09 часов
02.09.15 05:00 Одесса 22.0 23.0 756 97 Пд-З 2 06 часов
02.09.15 02:00 Одесса 23.0 23.0 756 78 Пд-З 2 03 часа
01.09.15 08:00 Одесса 25.0 23.0 757 48 Пд-З 4 21 час
01.09.15 05:00 Одесса 26.0 23.0 757 68 Пд-З 3 18 часов
01.09.15 02:00 Одесса 29.0 23.0 758 61 Пд 3 15 часов
01.09.15 11:00 Одесса 26.0 23.0 759 77 Пд 5 12 часов
Количество строк
351 352 353 354 355 356 357 358 359 360
Page 352 of 481